createdAt,value
2019-04-27T00:00:55.313Z,62.80
2019-04-27T00:03:27.561Z,62.90
2019-04-27T00:05:58.949Z,62.80
2019-04-27T00:08:39.208Z,62.90
2019-04-27T00:11:28.561Z,62.90
2019-04-27T00:13:55.423Z,62.90
2019-04-27T00:16:46.885Z,62.90
2019-04-27T00:19:45.093Z,62.90
2019-04-27T00:22:33.528Z,62.90
2019-04-27T00:25:00.319Z,62.90
2019-04-27T00:27:27.354Z,63.00
2019-04-27T00:29:53.958Z,63.80
2019-04-27T00:32:20.793Z,63.00
2019-04-27T00:34:48.101Z,63.00
2019-04-27T00:37:34.223Z,63.00
2019-04-27T00:40:04.844Z,62.90
2019-04-27T00:42:33.369Z,62.90
2019-04-27T00:45:03.306Z,63.00
2019-04-27T00:47:30.618Z,63.00
2019-04-27T00:49:57.259Z,63.10
2019-04-27T00:52:24.123Z,63.00
2019-04-27T00:54:51.057Z,63.00
2019-04-27T00:57:33.345Z,63.00
2019-04-27T01:00:18.018Z,63.00
2019-04-27T01:02:54.761Z,63.00
2019-04-27T01:05:25.570Z,63.10
2019-04-27T01:07:53.717Z,63.50
2019-04-27T01:10:20.398Z,63.00
2019-04-27T01:12:47.002Z,63.00
2019-04-27T01:15:13.922Z,63.00
2019-04-27T01:17:40.860Z,63.00
2019-04-27T01:20:08.662Z,63.10
2019-04-27T01:22:35.634Z,63.00
2019-04-27T01:25:02.585Z,63.00
2019-04-27T01:27:49.362Z,63.10
2019-04-27T01:30:39.233Z,63.10
2019-04-27T01:33:06.232Z,63.10
2019-04-27T01:35:32.999Z,63.10
2019-04-27T01:37:59.761Z,63.00
2019-04-27T01:40:26.545Z,63.10
2019-04-27T01:42:53.319Z,63.10
2019-04-27T01:45:20.150Z,63.10
2019-04-27T01:47:47.085Z,63.10
2019-04-27T01:50:13.937Z,63.10
2019-04-27T01:52:41.798Z,63.10
2019-04-27T01:55:08.736Z,63.20
2019-04-27T01:57:35.717Z,63.10
2019-04-27T02:00:03.337Z,63.90
2019-04-27T02:02:45.511Z,63.10
2019-04-27T02:05:44.023Z,63.20
2019-04-27T02:08:10.701Z,63.20
2019-04-27T02:10:37.355Z,63.20
2019-04-27T02:13:04.010Z,63.20
2019-04-27T02:15:30.797Z,63.20
2019-04-27T02:17:59.493Z,63.30
2019-04-27T02:20:26.015Z,63.00
2019-04-27T02:22:53.185Z,63.10
2019-04-27T02:25:21.153Z,63.20
2019-04-27T02:27:51.804Z,63.20
2019-04-27T02:30:56.389Z,63.20
2019-04-27T02:33:45.740Z,63.30
2019-04-27T02:36:15.190Z,63.20
2019-04-27T02:38:41.292Z,63.30
2019-04-27T02:41:10.011Z,63.20
2019-04-27T02:44:02.475Z,63.20
2019-04-27T02:46:31.440Z,63.20
2019-04-27T02:49:03.124Z,63.20
2019-04-27T02:51:33.093Z,63.30
2019-04-27T02:54:00.492Z,63.30
2019-04-27T02:56:27.378Z,63.20
2019-04-27T02:58:54.426Z,63.10
2019-04-27T03:01:22.592Z,63.20
2019-04-27T03:03:50.230Z,63.30
2019-04-27T03:06:19.676Z,63.30
2019-04-27T03:08:49.488Z,63.20
2019-04-27T03:11:14.444Z,63.80
2019-04-27T03:13:51.717Z,63.30
2019-04-27T03:16:41.033Z,63.30
2019-04-27T03:19:25.998Z,63.30
2019-04-27T03:22:04.605Z,63.30
2019-04-27T03:24:49.932Z,63.40
2019-04-27T03:27:20.094Z,63.30
2019-04-27T03:29:49.704Z,63.40
2019-04-27T03:32:15.643Z,63.30
2019-04-27T03:34:42.721Z,63.30
2019-04-27T03:37:10.299Z,63.30
2019-04-27T03:39:39.691Z,63.40
2019-04-27T03:42:10.145Z,63.40
2019-04-27T03:44:36.389Z,63.40
2019-04-27T03:47:03.110Z,63.40
2019-04-27T03:49:37.741Z,63.40
2019-04-27T03:52:09.484Z,63.40
2019-04-27T03:54:41.636Z,63.40
2019-04-27T03:57:14.798Z,63.50
2019-04-27T04:00:05.338Z,63.50
2019-04-27T04:02:32.105Z,63.50
2019-04-27T04:04:59.827Z,63.40
2019-04-27T04:07:26.844Z,63.40
2019-04-27T04:09:53.874Z,63.50
2019-04-27T04:12:30.254Z,63.50
2019-04-27T04:14:59.619Z,63.50
2019-04-27T04:17:25.690Z,63.60
2019-04-27T04:19:57.486Z,63.50
2019-04-27T04:22:21.731Z,63.50
2019-04-27T04:24:50.529Z,63.50
2019-04-27T04:27:17.025Z,63.60
2019-04-27T04:29:43.778Z,63.50
2019-04-27T04:32:10.859Z,63.60
2019-04-27T04:34:39.852Z,63.50
2019-04-27T04:37:06.370Z,63.50
2019-04-27T04:39:33.109Z,63.50
2019-04-27T04:42:13.222Z,63.60
2019-04-27T04:45:10.593Z,63.50
2019-04-27T04:48:02.345Z,63.60
2019-04-27T04:50:30.418Z,63.60
2019-04-27T04:52:59.820Z,63.50
2019-04-27T04:55:26.197Z,63.60
2019-04-27T04:57:52.903Z,63.60
2019-04-27T05:00:20.002Z,63.60
2019-04-27T05:02:47.162Z,63.60
2019-04-27T05:05:13.807Z,63.60
2019-04-27T05:07:40.790Z,63.70
2019-04-27T05:10:09.082Z,63.70
2019-04-27T05:12:35.824Z,63.60
2019-04-27T05:15:02.492Z,63.80
2019-04-27T05:17:29.634Z,63.60
2019-04-27T05:19:56.611Z,63.70
2019-04-27T05:22:23.220Z,63.70
2019-04-27T05:24:59.822Z,63.70
2019-04-27T05:27:26.890Z,63.90
2019-04-27T05:29:53.682Z,63.70
2019-04-27T05:32:20.754Z,63.70
2019-04-27T05:34:49.508Z,63.50
2019-04-27T05:37:16.379Z,63.70
2019-04-27T05:39:43.199Z,63.80
2019-04-27T05:42:10.969Z,63.70
2019-04-27T05:44:46.671Z,63.70
2019-04-27T05:47:21.331Z,64.50
2019-04-27T05:49:53.088Z,63.70
2019-04-27T05:52:30.027Z,63.80
2019-04-27T05:54:58.780Z,63.80
2019-04-27T05:57:25.903Z,63.70
2019-04-27T05:59:52.938Z,63.80
2019-04-27T06:02:20.287Z,64.00
2019-04-27T06:04:49.667Z,63.80
2019-04-27T06:07:16.711Z,63.80
2019-04-27T06:09:43.387Z,63.80
2019-04-27T06:12:10.106Z,63.80
2019-04-27T06:14:36.751Z,63.80
2019-04-27T06:17:03.456Z,63.90
2019-04-27T06:19:30.247Z,63.90
2019-04-27T06:21:57.037Z,63.90
2019-04-27T06:24:24.118Z,63.90
2019-04-27T06:26:51.489Z,63.90
2019-04-27T06:29:19.512Z,64.00
2019-04-27T06:31:46.368Z,64.10
2019-04-27T06:34:13.160Z,64.00
2019-04-27T06:36:39.956Z,64.00
2019-04-27T06:39:06.774Z,64.00
2019-04-27T06:41:33.566Z,64.10
2019-04-27T06:44:00.639Z,64.00
2019-04-27T06:46:28.797Z,64.00
2019-04-27T06:48:56.335Z,64.00
2019-04-27T06:51:23.134Z,64.00
2019-04-27T06:53:49.916Z,64.00
2019-04-27T06:56:18.469Z,64.00
2019-04-27T06:58:45.471Z,64.00
2019-04-27T07:01:12.276Z,64.00
2019-04-27T07:03:39.512Z,64.10
2019-04-27T07:06:06.489Z,64.00
2019-04-27T07:08:33.375Z,64.10
2019-04-27T07:11:00.337Z,64.20
2019-04-27T07:13:28.990Z,64.20
2019-04-27T07:15:55.679Z,64.20
2019-04-27T07:18:23.281Z,64.30
2019-04-27T07:20:50.171Z,64.20
2019-04-27T07:23:18.692Z,64.20
2019-04-27T07:25:45.805Z,64.20
2019-04-27T07:28:12.833Z,64.10
2019-04-27T07:30:39.680Z,64.30
2019-04-27T07:33:08.630Z,64.30
2019-04-27T07:35:35.501Z,64.40
2019-04-27T07:38:03.598Z,64.30
2019-04-27T07:40:30.573Z,64.30
2019-04-27T07:43:04.149Z,64.30
2019-04-27T07:45:34.737Z,64.40
2019-04-27T07:48:02.769Z,64.30
2019-04-27T07:50:30.849Z,64.40
2019-04-27T07:52:59.453Z,64.40
2019-04-27T07:55:26.453Z,64.40
2019-04-27T07:57:53.729Z,64.40
2019-04-27T08:00:21.089Z,64.50
2019-04-27T08:02:48.638Z,64.40
2019-04-27T08:05:15.861Z,64.40
2019-04-27T08:07:44.423Z,64.50
2019-04-27T08:10:12.577Z,64.40
2019-04-27T08:12:39.406Z,64.50
2019-04-27T08:15:06.070Z,64.60
2019-04-27T08:17:34.784Z,64.50
2019-04-27T08:20:02.175Z,64.60
2019-04-27T08:22:29.182Z,64.60
2019-04-27T08:24:56.656Z,64.60
2019-04-27T08:27:29.517Z,64.70
2019-04-27T08:30:09.346Z,64.70
2019-04-27T08:32:41.301Z,64.60
2019-04-27T08:35:09.562Z,64.50
2019-04-27T08:37:38.546Z,64.70
2019-04-27T08:40:06.030Z,64.60
2019-04-27T08:42:32.839Z,64.60
2019-04-27T08:44:59.868Z,64.80
2019-04-27T08:47:27.188Z,64.80
2019-04-27T08:49:54.118Z,64.80
2019-04-27T08:52:20.881Z,64.80
2019-04-27T08:54:50.902Z,64.80
2019-04-27T08:57:16.407Z,64.80
2019-04-27T08:59:43.271Z,64.80
2019-04-27T09:02:10.155Z,64.80
2019-04-27T09:04:39.292Z,64.80
2019-04-27T09:07:24.428Z,64.90
2019-04-27T09:09:55.323Z,64.90
2019-04-27T09:12:53.305Z,65.40
2019-04-27T09:15:24.454Z,64.90
2019-04-27T09:17:53.307Z,65.70
2019-04-27T09:20:30.396Z,64.80
2019-04-27T09:22:57.251Z,64.80
2019-04-27T09:25:24.477Z,64.80
2019-04-27T09:27:51.395Z,64.80
2019-04-27T09:30:19.072Z,64.80
2019-04-27T09:32:46.248Z,64.80
2019-04-27T09:35:13.857Z,65.00
2019-04-27T09:37:42.774Z,64.80
2019-04-27T09:40:09.726Z,64.80
2019-04-27T09:42:38.350Z,64.90
2019-04-27T09:45:06.633Z,64.80
2019-04-27T09:47:33.775Z,64.90
2019-04-27T09:50:00.812Z,64.80
2019-04-27T09:52:28.642Z,64.80
2019-04-27T09:54:56.131Z,64.70
2019-04-27T09:57:22.939Z,65.00
2019-04-27T09:59:49.753Z,64.80
2019-04-27T10:02:16.883Z,64.80
2019-04-27T10:04:43.933Z,64.90
2019-04-27T10:07:10.905Z,64.90
2019-04-27T10:09:37.859Z,64.90
2019-04-27T10:12:05.340Z,64.80
2019-04-27T10:14:33.692Z,65.60
2019-04-27T10:17:02.210Z,64.80
2019-04-27T10:19:32.969Z,64.80
2019-04-27T10:21:58.301Z,64.90
2019-04-27T10:24:25.778Z,64.80
2019-04-27T10:26:52.906Z,64.80
2019-04-27T10:29:19.820Z,64.70
2019-04-27T10:31:48.194Z,64.80
2019-04-27T10:34:15.779Z,65.60
2019-04-27T10:36:46.022Z,64.80
2019-04-27T10:39:13.388Z,64.80
2019-04-27T10:41:40.604Z,64.80
2019-04-27T10:44:07.667Z,64.90
2019-04-27T10:46:34.486Z,64.70
2019-04-27T10:49:01.250Z,64.90
2019-04-27T10:51:28.039Z,64.70
2019-04-27T10:53:55.796Z,64.80
2019-04-27T10:56:25.490Z,64.90
2019-04-27T10:58:51.810Z,65.40
2019-04-27T11:01:18.746Z,64.80
2019-04-27T11:06:31.730Z,63.10
2019-04-27T11:08:58.488Z,64.80
2019-04-27T11:11:25.896Z,64.40
2019-04-27T11:13:53.856Z,64.70
2019-04-27T11:16:20.798Z,64.60
2019-04-27T11:18:47.914Z,64.70
2019-04-27T11:21:15.817Z,64.70
2019-04-27T11:23:42.666Z,64.70
2019-04-27T11:26:09.965Z,64.70
2019-04-27T11:28:36.956Z,64.70
2019-04-27T11:31:03.719Z,64.70
2019-04-27T11:33:31.065Z,64.50
2019-04-27T11:36:17.234Z,64.60
2019-04-27T11:38:46.510Z,65.40
2019-04-27T11:41:13.150Z,64.50
2019-04-27T11:43:39.957Z,64.50
2019-04-27T11:46:06.809Z,64.40
2019-04-27T11:48:36.140Z,64.50
2019-04-27T11:51:02.989Z,64.50
2019-04-27T11:53:30.065Z,64.50
2019-04-27T11:55:56.845Z,64.40
2019-04-27T11:58:23.593Z,64.40
2019-04-27T12:00:50.375Z,64.40
2019-04-27T12:03:17.395Z,64.40
2019-04-27T12:05:44.145Z,64.40
2019-04-27T12:08:11.175Z,64.30
2019-04-27T12:10:37.937Z,64.30
2019-04-27T12:13:05.752Z,64.30
2019-04-27T12:15:33.533Z,64.30
2019-04-27T12:18:00.217Z,64.40
2019-04-27T12:20:27.725Z,64.30
2019-04-27T12:22:54.676Z,64.30
2019-04-27T12:25:21.462Z,64.20
2019-04-27T12:28:22.791Z,64.30
2019-04-27T12:31:16.373Z,64.40
2019-04-27T12:33:43.610Z,64.50
2019-04-27T12:36:10.643Z,64.30
2019-04-27T12:38:37.381Z,64.30
2019-04-27T12:41:04.207Z,64.30
2019-04-27T12:43:31.742Z,64.20
2019-04-27T12:45:58.835Z,64.20
2019-04-27T12:48:25.572Z,64.20
2019-04-27T12:50:53.384Z,64.30
2019-04-27T12:53:29.709Z,64.20
2019-04-27T12:56:16.667Z,64.10
2019-04-27T12:59:11.822Z,64.20
2019-04-27T13:01:38.667Z,64.20
2019-04-27T13:04:07.578Z,64.10
2019-04-27T13:06:35.781Z,64.00
2019-04-27T13:09:03.754Z,64.00
2019-04-27T13:11:30.574Z,64.00
2019-04-27T13:13:57.707Z,64.10
2019-04-27T13:16:26.688Z,64.00
2019-04-27T13:18:53.298Z,63.80
2019-04-27T13:21:20.955Z,64.00
2019-04-27T13:23:47.887Z,64.00
2019-04-27T13:26:16.367Z,63.90
2019-04-27T13:28:43.341Z,63.90
2019-04-27T13:31:12.075Z,63.90
2019-04-27T13:33:38.834Z,63.80
2019-04-27T13:36:07.495Z,63.80
2019-04-27T13:38:34.235Z,63.80
2019-04-27T13:41:11.299Z,63.80
2019-04-27T13:43:38.016Z,63.70
2019-04-27T13:46:15.779Z,63.70
2019-04-27T13:49:01.044Z,63.90
2019-04-27T13:51:45.063Z,63.80
2019-04-27T13:54:18.825Z,63.70
2019-04-27T13:56:40.242Z,63.70
2019-04-27T13:59:07.791Z,63.70
2019-04-27T14:01:35.037Z,63.00
2019-04-27T14:04:01.990Z,63.70
2019-04-27T14:06:28.558Z,63.90
2019-04-27T14:08:55.420Z,63.70
2019-04-27T14:11:22.539Z,63.60
2019-04-27T14:13:49.320Z,63.70
2019-04-27T14:16:16.113Z,63.70
2019-04-27T14:18:42.879Z,63.70
2019-04-27T14:21:09.907Z,63.70
2019-04-27T14:23:38.504Z,63.80
2019-04-27T14:26:05.314Z,63.70
2019-04-27T14:28:32.205Z,63.60
2019-04-27T14:30:59.129Z,63.70
2019-04-27T14:33:28.321Z,63.60
2019-04-27T14:35:55.563Z,63.80
2019-04-27T14:38:22.415Z,63.50
2019-04-27T14:40:50.389Z,63.60
2019-04-27T14:43:18.870Z,63.60
2019-04-27T14:45:45.954Z,63.60
2019-04-27T14:48:12.958Z,63.60
2019-04-27T14:50:40.488Z,63.50
2019-04-27T14:53:08.867Z,63.60
2019-04-27T14:55:35.648Z,63.60
2019-04-27T14:58:02.436Z,63.70
2019-04-27T15:00:30.633Z,63.60
2019-04-27T15:02:59.157Z,63.60
2019-04-27T15:05:26.311Z,63.60
2019-04-27T15:07:54.630Z,63.40
2019-04-27T15:10:21.381Z,63.50
2019-04-27T15:12:48.123Z,64.40
2019-04-27T15:15:14.903Z,63.50
2019-04-27T15:17:41.849Z,63.50
2019-04-27T15:20:12.992Z,63.50
2019-04-27T15:22:40.352Z,63.50
2019-04-27T15:25:11.949Z,63.40
2019-04-27T15:27:42.369Z,63.50
2019-04-27T15:30:14.439Z,63.40
2019-04-27T15:33:02.372Z,63.50
2019-04-27T15:35:44.242Z,63.50
2019-04-27T15:38:15.338Z,63.70
2019-04-27T15:41:16.841Z,63.50
2019-04-27T15:43:45.990Z,63.40
2019-04-27T15:46:13.026Z,63.50
2019-04-27T15:48:41.764Z,63.30
2019-04-27T15:51:14.664Z,63.40
2019-04-27T15:53:39.437Z,63.30
2019-04-27T15:56:05.875Z,63.30
2019-04-27T15:58:32.690Z,63.30
2019-04-27T16:01:02.413Z,63.30
2019-04-27T16:03:31.366Z,63.20
2019-04-27T16:05:58.758Z,63.30
2019-04-27T16:08:25.603Z,63.60
2019-04-27T16:10:52.344Z,63.20
2019-04-27T16:13:19.571Z,63.20
2019-04-27T16:15:50.338Z,63.20
2019-04-27T16:18:14.851Z,63.30
2019-04-27T16:20:41.629Z,63.30
2019-04-27T16:23:08.849Z,63.20
2019-04-27T16:28:15.055Z,61.60
2019-04-27T16:30:45.779Z,63.20
2019-04-27T16:33:15.335Z,63.10
2019-04-27T16:35:40.295Z,63.10
2019-04-27T16:38:26.808Z,63.00
2019-04-27T16:43:23.920Z,63.10
2019-04-27T16:45:50.367Z,63.10
2019-04-27T16:48:18.567Z,63.00
2019-04-27T16:50:45.499Z,63.10
2019-04-27T16:53:12.652Z,63.10
2019-04-27T16:55:39.699Z,63.20
2019-04-27T16:58:09.786Z,63.00
2019-04-27T17:00:35.491Z,63.00
2019-04-27T17:03:03.265Z,63.20
2019-04-27T17:05:34.689Z,62.90
2019-04-27T17:08:00.067Z,63.10
2019-04-27T17:10:29.054Z,63.00
2019-04-27T17:12:56.485Z,63.00
2019-04-27T17:15:45.896Z,63.10
2019-04-27T17:18:38.457Z,63.00
2019-04-27T17:21:18.473Z,63.00
2019-04-27T17:23:36.023Z,62.90
2019-04-27T17:26:20.244Z,62.80
2019-04-27T17:28:41.686Z,63.00
2019-04-27T17:31:12.588Z,62.90
2019-04-27T17:33:39.809Z,62.90
2019-04-27T17:36:07.998Z,62.80
2019-04-27T17:38:34.784Z,62.90
2019-04-27T17:41:04.712Z,62.90
2019-04-27T17:43:30.027Z,62.90
2019-04-27T17:45:58.199Z,62.90
2019-04-27T17:48:25.294Z,62.90
2019-04-27T17:50:55.960Z,62.90
2019-04-27T17:53:25.096Z,63.00
2019-04-27T17:55:49.588Z,63.00
2019-04-27T17:58:17.964Z,62.80
2019-04-27T18:00:44.910Z,63.40
2019-04-27T18:03:12.534Z,62.80
2019-04-27T18:05:43.899Z,62.90
2019-04-27T18:08:08.996Z,62.90
2019-04-27T18:10:35.674Z,62.60
2019-04-27T18:13:02.846Z,62.80
2019-04-27T18:15:30.665Z,62.70
2019-04-27T18:17:59.506Z,62.90
2019-04-27T18:20:26.284Z,62.80
2019-04-27T18:23:08.928Z,62.80
2019-04-27T18:25:43.568Z,62.80
2019-04-27T18:28:15.050Z,62.80
2019-04-27T18:31:00.697Z,62.70
2019-04-27T18:33:28.401Z,62.80
2019-04-27T18:35:58.831Z,62.70
2019-04-27T18:38:24.334Z,62.80
2019-04-27T18:40:51.284Z,62.70
2019-04-27T18:43:18.689Z,62.80
2019-04-27T18:45:46.183Z,62.80
2019-04-27T18:48:22.160Z,62.70
2019-04-27T18:51:04.985Z,62.80
2019-04-27T18:53:31.793Z,62.80
2019-04-27T18:56:04.834Z,62.80
2019-04-27T18:58:27.307Z,62.70
2019-04-27T19:00:54.111Z,62.50
2019-04-27T19:03:20.885Z,62.60
2019-04-27T19:05:48.075Z,62.70
2019-04-27T19:08:15.067Z,62.60
2019-04-27T19:10:41.857Z,62.70
2019-04-27T19:13:08.859Z,62.70
2019-04-27T19:15:35.540Z,62.60
2019-04-27T19:18:02.559Z,62.70
2019-04-27T19:20:29.351Z,62.60
2019-04-27T19:22:56.185Z,62.60
2019-04-27T19:25:31.431Z,62.70
2019-04-27T19:28:16.325Z,62.60
2019-04-27T19:30:47.360Z,62.60
2019-04-27T19:33:14.099Z,62.60
2019-04-27T19:35:41.173Z,62.70
2019-04-27T19:38:08.221Z,62.60
2019-04-27T19:40:34.991Z,62.60
2019-04-27T19:43:01.796Z,62.70
2019-04-27T19:45:29.200Z,62.70
2019-04-27T19:47:56.163Z,62.40
2019-04-27T19:50:23.394Z,62.50
2019-04-27T19:52:50.360Z,62.60
2019-04-27T19:55:19.058Z,62.50
2019-04-27T19:57:45.687Z,62.60
2019-04-27T20:00:24.909Z,62.60
2019-04-27T20:02:51.609Z,62.50
2019-04-27T20:05:18.751Z,62.60
2019-04-27T20:07:46.059Z,62.60
2019-04-27T20:10:12.834Z,62.50
2019-04-27T20:12:41.065Z,62.60
2019-04-27T20:15:08.274Z,62.50
2019-04-27T20:17:35.166Z,62.50
2019-04-27T20:20:02.075Z,62.50
2019-04-27T20:22:28.730Z,62.50
2019-04-27T20:24:55.820Z,62.50
2019-04-27T20:27:22.856Z,62.60
2019-04-27T20:29:49.742Z,62.60
2019-04-27T20:32:16.986Z,62.60
2019-04-27T20:34:43.844Z,62.60
2019-04-27T20:37:11.915Z,62.50
2019-04-27T20:39:42.569Z,62.50
2019-04-27T20:42:07.899Z,62.60
2019-04-27T20:44:34.958Z,62.50
2019-04-27T20:47:01.718Z,62.60
2019-04-27T20:49:29.059Z,62.50
2019-04-27T20:52:15.815Z,62.40
2019-04-27T20:54:42.601Z,62.50
2019-04-27T20:57:11.352Z,62.60
2019-04-27T20:59:38.373Z,62.40
2019-04-27T21:02:24.163Z,62.50
2019-04-27T21:04:57.422Z,62.60
2019-04-27T21:07:39.013Z,62.50
2019-04-27T21:10:05.723Z,62.50
2019-04-27T21:12:32.356Z,62.40
2019-04-27T21:14:59.145Z,62.50
2019-04-27T21:17:25.773Z,62.50
2019-04-27T21:19:52.419Z,62.50
2019-04-27T21:22:19.180Z,62.50
2019-04-27T21:24:45.924Z,62.40
2019-04-27T21:27:13.285Z,62.50
2019-04-27T21:29:42.054Z,62.50
2019-04-27T21:32:11.027Z,63.10
2019-04-27T21:34:37.751Z,62.60
2019-04-27T21:37:04.856Z,62.50
2019-04-27T21:39:31.951Z,62.50
2019-04-27T21:42:00.865Z,62.50
2019-04-27T21:44:27.639Z,62.50
2019-04-27T21:46:54.427Z,62.50
2019-04-27T21:49:22.371Z,62.50
2019-04-27T21:52:04.260Z,62.60
2019-04-27T21:54:32.767Z,62.50
2019-04-27T21:56:59.719Z,62.50
2019-04-27T21:59:26.326Z,62.50
2019-04-27T22:01:55.445Z,62.40
2019-04-27T22:04:22.460Z,63.30
2019-04-27T22:06:51.112Z,62.40
2019-04-27T22:09:18.184Z,62.50
2019-04-27T22:11:44.874Z,62.50
2019-04-27T22:14:11.810Z,62.40
2019-04-27T22:16:38.648Z,62.50
2019-04-27T22:19:05.505Z,62.40
2019-04-27T22:21:32.356Z,62.60
2019-04-27T22:24:08.066Z,62.50
2019-04-27T22:26:34.826Z,62.60
2019-04-27T22:29:01.688Z,62.50
2019-04-27T22:31:29.050Z,62.50
2019-04-27T22:33:55.696Z,62.50
2019-04-27T22:36:22.398Z,62.50
2019-04-27T22:38:49.054Z,62.50
2019-04-27T22:41:26.007Z,63.20
2019-04-27T22:44:31.698Z,62.50
2019-04-27T22:46:58.888Z,62.50
2019-04-27T22:49:25.988Z,62.50
2019-04-27T22:51:52.952Z,62.50
2019-04-27T22:54:21.735Z,63.30
2019-04-27T22:56:48.794Z,62.50
2019-04-27T22:59:37.806Z,62.50
2019-04-27T23:02:31.732Z,62.50
2019-04-27T23:05:01.911Z,62.50
2019-04-27T23:07:28.930Z,62.50
2019-04-27T23:09:55.613Z,62.20
2019-04-27T23:12:23.055Z,62.50
2019-04-27T23:14:50.562Z,62.60
2019-04-27T23:17:36.840Z,62.60
2019-04-27T23:20:03.806Z,62.30
2019-04-27T23:22:32.336Z,62.50
2019-04-27T23:25:00.932Z,62.50
2019-04-27T23:27:27.545Z,62.50
2019-04-27T23:29:55.539Z,62.50
2019-04-27T23:32:31.575Z,62.60
2019-04-27T23:34:58.065Z,62.60
2019-04-27T23:37:24.811Z,62.70
2019-04-27T23:39:51.495Z,62.50
2019-04-27T23:42:18.134Z,62.60
2019-04-27T23:44:44.883Z,62.50
2019-04-27T23:47:11.639Z,62.50
2019-04-27T23:49:38.432Z,62.60
2019-04-27T23:52:11.413Z,62.60
2019-04-27T23:54:38.096Z,62.60
2019-04-27T23:57:04.896Z,62.50
2019-04-27T23:59:33.270Z,62.60
